Morrisville, VT

4:31 PM EDT on September 01, 2014 (GMT -0400)
Morristown Corners | Change Station
CLOSE
Current Station
Personal Weather Station
Location: Morrisville, VT
Elevation: 745 ft
Nearby Weather Stations

Elev 745 ft 44.56 °N, 72.62 °W | Updated 1 minute ago

Scattered Clouds
Scattered Clouds
83.5 °F
Feels Like 87 °F
N
1.7
Wind Variable Wind from NNW

Today
High -- | Low -- °F
--% Chance of Precip.
Yesterday
High -- | Low -- °F
Precip. -- in
6:12 AM 7:26 PM
Waxing Crescent, 44% visible
Pressure 29.96 in
Visibility 10.0 miles
Clouds Scattered Clouds 6000 ft
Heat Index 87 °F
Dew Point 69 °F
Humidity 62%
Rainfall 0.00 in
Snow Depth Not available.
UV 7 out of 12
Pollen 6.70 out of 12
Ozone Good
PM2.5 Good
Flu Activity Not available.
METAR KMVL 011754Z AUTO VRB04KT 10SM SCT060 28/16 A2996 RMK AO2 SLP143 T02830161 10283 20183 58005

More Conditions Fewer Conditions

Pressure 29.96 in
Visibility 10.0 miles
Clouds Scattered Clouds 6000 ft
Heat Index 87 °F
Dew Point 69 °F
Humidity 62%
Rainfall 0.00 in
Snow Depth Not available.
UV 7 out of 12
Pollen 6.70 out of 12
Ozone Good
PM2.5 Good
Flu Activity Not available.
METAR KMVL 011754Z AUTO VRB04KT 10SM SCT060 28/16 A2996 RMK AO2 SLP143 T02830161 10283 20183 58005

More Conditions Fewer Conditions

10-Day Weather Forecast

Almanac

Astronomy

Sep. 01, 2014 Rise Set
Actual Time 6:12 AM EDT 7:26 PM EDT
Civil Twilight 5:42 AM EDT 7:56 PM EDT
Nautical Twilight 5:06 AM EDT 8:32 PM EDT
Astronomical Twilight 4:28 AM EDT 9:11 PM EDT
Moon 1:11 PM EDT 11:09 PM EDT
Length of Visible Light 14h 14m
Length of Day
13h 14m
Tomorrow will be 2m 59s shorter.
Waxing Crescent, 44% of the Moon is Illuminated
Today
Waxing Crescent
Sep 2
First Quarter
Sep 8
Full
Sep 15
Last Quarter
Sep 24
New

Today's Extremes

State Highs State Lows

Community

WunderPhotos

Upload Photos

1,749,398 photos uploaded!

WunderBlogs® & News

Nearby

Air Quality

  Air Quality AQ Index Pollutant
Yesterday Good
PM2.5
Yesterday Good
OZONE
Current Good
OZONE
Current Good
PM2.5
Monday Moderate
PM2.5
Tuesday Moderate
PM2.5

Snow Depth

Station Depth Elevation
No new snow has been reported.

Earthquake Activity

City Distance Mag. Time & Date
No recent earthquake activity has been reported nearby.
Minimum magnitude displayed is 2.5.

Coastal Water Temperatures

Place Temperature
No Stations Reporting

Nearby Weather Stations